Plentywood (PWD)
Plentywood, MT
Field Elevation: 2251
Lat: 48°47.32N  Long: 104°31.39W
CTAF/Unicom Freq: 122.8000
   
     For Weather-by-Phone, call 406-765-2149
Weather Advisories
7/30/2014 19:11 Z
Altimeter 30.18" Hg
Wind 240° @ 0 KT
Gusts --
Visibility 10 SM
Temperature 26° C (79° F)
Dewpoint 12° C (54° F)
Relative Humidity 42%
Density Altitude 3,700 feet
Condensation Altitude 9,200 feet
  Wind and Runways
Indicated Runway = 26
History
 
 
More Info
All DigiWx sites map
NOAA Forecast
 
Airport IQ 5010
(S59) Libby
(6S5) Ravalli County
 
about DigiWx
 
FAA Disclaimer: The data displayed is for advisory purposes only and is not to be used for flight planning or operations. For official data, please call 406-765-2149 to hear the current automated AWOS voice message.
  METAR PWD 301911Z AUTO 24000KT 10SM 26/12 A3018